createdAt,value
2022-08-17T00:00:34.337Z,21.70
2022-08-17T00:03:04.228Z,21.66
2022-08-17T00:05:36.808Z,21.64
2022-08-17T00:08:05.707Z,21.56
2022-08-17T00:10:33.773Z,21.56
2022-08-17T00:13:06.962Z,21.53
2022-08-17T00:15:36.245Z,21.52
2022-08-17T00:18:04.162Z,21.47
2022-08-17T00:20:52.054Z,21.49
2022-08-17T00:23:20.175Z,21.44
2022-08-17T00:25:48.944Z,21.43
2022-08-17T00:28:18.123Z,21.37
2022-08-17T00:30:53.688Z,21.33
2022-08-17T00:33:25.566Z,21.33
2022-08-17T00:35:54.194Z,21.33
2022-08-17T00:38:22.210Z,21.34
2022-08-17T00:40:52.290Z,21.33
2022-08-17T00:43:29.973Z,21.29
2022-08-17T00:46:00.561Z,21.27
2022-08-17T00:48:30.787Z,21.25
2022-08-17T00:51:06.556Z,21.25
2022-08-17T00:53:38.680Z,21.23
2022-08-17T00:56:11.882Z,21.27
2022-08-17T00:58:40.259Z,21.27
2022-08-17T01:01:11.452Z,21.27
2022-08-17T01:03:41.900Z,21.29
2022-08-17T01:06:10.184Z,21.27
2022-08-17T01:08:40.011Z,21.27
2022-08-17T01:11:09.229Z,21.28
2022-08-17T01:13:41.438Z,21.24
2022-08-17T01:16:17.285Z,21.20
2022-08-17T01:18:46.840Z,21.17
2022-08-17T01:21:23.368Z,21.11
2022-08-17T01:23:52.698Z,21.08
2022-08-17T01:26:21.283Z,21.07
2022-08-17T01:28:53.683Z,21.09
2022-08-17T01:31:25.520Z,21.10
2022-08-17T01:33:53.740Z,21.09
2022-08-17T01:36:22.505Z,21.06
2022-08-17T01:38:50.395Z,20.99
2022-08-17T01:41:22.341Z,20.92
2022-08-17T01:43:55.103Z,20.89
2022-08-17T01:46:28.009Z,20.81
2022-08-17T01:48:57.592Z,20.77
2022-08-17T01:51:27.351Z,20.71
2022-08-17T01:53:59.341Z,20.69
2022-08-17T01:56:31.146Z,20.68
2022-08-17T01:58:59.301Z,20.66
2022-08-17T02:01:30.508Z,20.63
2022-08-17T02:04:01.344Z,20.63
2022-08-17T02:06:45.034Z,20.63
2022-08-17T02:09:17.021Z,20.61
2022-08-17T02:11:47.291Z,20.62
2022-08-17T02:14:15.342Z,20.59
2022-08-17T02:16:43.553Z,20.57
2022-08-17T02:19:15.745Z,20.56
2022-08-17T02:21:45.697Z,20.53
2022-08-17T02:25:01.018Z,20.50
2022-08-17T02:27:08.376Z,20.51
2022-08-17T02:29:36.264Z,20.49
2022-08-17T02:32:05.032Z,20.48
2022-08-17T02:34:33.330Z,20.48
2022-08-17T02:37:01.254Z,20.43
2022-08-17T02:39:29.234Z,20.40
2022-08-17T02:42:02.601Z,20.38
2022-08-17T02:44:39.962Z,20.36
2022-08-17T02:47:10.462Z,20.40
2022-08-17T02:49:39.037Z,20.40
2022-08-17T02:52:08.610Z,20.42
2022-08-17T02:54:40.776Z,20.41
2022-08-17T02:57:10.930Z,20.37
2022-08-17T02:59:43.313Z,20.40
2022-08-17T03:02:16.273Z,20.37
2022-08-17T03:04:44.128Z,20.38
2022-08-17T03:07:12.034Z,20.37
2022-08-17T03:09:39.871Z,20.35
2022-08-17T03:12:10.097Z,20.35
2022-08-17T03:14:41.426Z,20.35
2022-08-17T03:17:17.149Z,20.33
2022-08-17T03:19:45.502Z,20.27
2022-08-17T03:22:35.688Z,20.18
2022-08-17T03:25:01.318Z,20.12
2022-08-17T03:27:30.079Z,20.09
2022-08-17T03:29:57.895Z,20.11
2022-08-17T03:32:27.102Z,20.08
2022-08-17T03:34:59.502Z,20.09
2022-08-17T03:37:27.560Z,20.05
2022-08-17T03:39:55.617Z,20.05
2022-08-17T03:42:31.390Z,20.05
2022-08-17T03:45:00.763Z,20.05
2022-08-17T03:47:47.756Z,20.04
2022-08-17T03:50:33.424Z,20.05
2022-08-17T03:53:19.057Z,20.07
2022-08-17T03:56:04.274Z,20.09
2022-08-17T03:58:32.130Z,20.12
2022-08-17T04:01:01.381Z,20.12
2022-08-17T04:03:30.569Z,20.12
2022-08-17T04:05:58.418Z,20.18
2022-08-17T04:08:26.252Z,20.23
2022-08-17T04:10:54.062Z,20.25
2022-08-17T04:13:24.073Z,20.23
2022-08-17T04:15:53.055Z,20.16
2022-08-17T04:18:21.308Z,20.06
2022-08-17T04:20:50.606Z,20.05
2022-08-17T04:23:20.074Z,20.04
2022-08-17T04:25:50.115Z,20.05
2022-08-17T04:28:19.017Z,20.12
2022-08-17T04:30:48.329Z,20.16
2022-08-17T04:33:19.043Z,20.20
2022-08-17T04:35:51.033Z,20.26
2022-08-17T04:38:20.830Z,20.33
2022-08-17T04:41:06.619Z,20.38
2022-08-17T04:43:35.579Z,20.40
2022-08-17T04:46:05.946Z,20.43
2022-08-17T04:48:37.584Z,20.55
2022-08-17T04:51:10.536Z,20.60
2022-08-17T04:53:39.908Z,20.62
2022-08-17T04:56:11.524Z,20.66
2022-08-17T04:58:39.836Z,20.68
2022-08-17T05:01:08.741Z,20.73
2022-08-17T05:03:36.779Z,20.79
2022-08-17T05:06:04.938Z,20.81
2022-08-17T05:08:34.208Z,20.83
2022-08-17T05:11:02.129Z,20.80
2022-08-17T05:13:30.713Z,20.89
2022-08-17T05:16:02.256Z,20.93
2022-08-17T05:18:31.162Z,21.01
2022-08-17T05:20:59.148Z,21.06
2022-08-17T05:23:31.985Z,21.09
2022-08-17T05:26:21.970Z,21.09
2022-08-17T05:28:55.324Z,21.15
2022-08-17T05:31:25.238Z,21.18
2022-08-17T05:33:53.353Z,21.23
2022-08-17T05:36:43.021Z,21.32
2022-08-17T05:39:15.868Z,21.39
2022-08-17T05:41:48.676Z,21.43
2022-08-17T05:44:17.386Z,21.47
2022-08-17T05:46:49.231Z,21.49
2022-08-17T05:49:20.243Z,21.51
2022-08-17T05:52:10.808Z,21.49
2022-08-17T05:54:52.204Z,21.51
2022-08-17T05:57:36.738Z,21.57
2022-08-17T06:00:20.144Z,21.62
2022-08-17T06:03:05.715Z,21.66
2022-08-17T06:05:55.068Z,21.72
2022-08-17T06:08:33.241Z,21.78
2022-08-17T06:11:11.463Z,21.85
2022-08-17T06:13:52.012Z,21.86
2022-08-17T06:16:33.438Z,21.83
2022-08-17T06:19:03.901Z,21.79
2022-08-17T06:21:36.077Z,21.74
2022-08-17T06:24:09.257Z,21.76
2022-08-17T06:26:43.238Z,21.72
2022-08-17T06:29:27.019Z,21.75
2022-08-17T06:31:55.022Z,21.78
2022-08-17T06:34:22.939Z,21.84
2022-08-17T06:36:59.222Z,21.83
2022-08-17T06:39:42.860Z,21.84
2022-08-17T06:43:02.205Z,21.83
2022-08-17T06:45:18.760Z,21.75
2022-08-17T06:47:51.576Z,21.72
2022-08-17T06:50:23.940Z,21.70
2022-08-17T06:52:57.923Z,21.71
2022-08-17T06:55:34.477Z,21.63
2022-08-17T06:58:15.947Z,21.68
2022-08-17T07:00:48.707Z,21.74
2022-08-17T07:03:27.594Z,21.76
2022-08-17T07:06:00.260Z,21.79
2022-08-17T07:08:34.993Z,21.78
2022-08-17T07:11:06.379Z,21.77
2022-08-17T07:13:43.787Z,21.76
2022-08-17T07:16:26.055Z,21.68
2022-08-17T07:18:55.743Z,21.69
2022-08-17T07:21:38.500Z,21.70
2022-08-17T07:24:30.213Z,21.67
2022-08-17T07:27:14.573Z,21.60
2022-08-17T07:29:46.674Z,21.66
2022-08-17T07:32:20.099Z,21.70
2022-08-17T07:35:11.822Z,21.77
2022-08-17T07:37:41.624Z,21.78
2022-08-17T07:40:20.560Z,21.75
2022-08-17T07:43:03.296Z,21.78
2022-08-17T07:45:51.952Z,21.77
2022-08-17T07:48:23.759Z,21.76
2022-08-17T07:50:53.207Z,21.74
2022-08-17T07:53:24.234Z,21.74
2022-08-17T07:55:53.533Z,21.73
2022-08-17T07:58:24.533Z,21.74
2022-08-17T08:01:09.038Z,21.73
2022-08-17T08:03:44.839Z,21.74
2022-08-17T08:06:22.276Z,21.75
2022-08-17T08:08:54.873Z,21.68
2022-08-17T08:11:33.533Z,21.70
2022-08-17T08:14:29.513Z,21.68
2022-08-17T08:17:00.187Z,21.75
2022-08-17T08:19:31.543Z,21.77
2022-08-17T08:22:05.568Z,21.76
2022-08-17T08:24:56.398Z,21.73
2022-08-17T08:27:35.732Z,21.76
2022-08-17T08:30:08.706Z,21.68
2022-08-17T08:32:50.589Z,21.65
2022-08-17T08:35:28.110Z,21.73
2022-08-17T08:38:20.033Z,21.82
2022-08-17T08:40:58.522Z,21.89
2022-08-17T08:43:37.180Z,21.91
2022-08-17T08:46:15.652Z,22.00
2022-08-17T08:49:14.537Z,22.12
2022-08-17T08:51:55.580Z,22.23
2022-08-17T08:54:36.779Z,22.27
2022-08-17T08:57:26.753Z,22.28
2022-08-17T09:00:08.737Z,22.34
2022-08-17T09:03:10.131Z,22.36
2022-08-17T09:05:58.295Z,22.39
2022-08-17T09:08:38.448Z,22.44
2022-08-17T09:11:10.749Z,22.54
2022-08-17T09:13:46.289Z,22.60
2022-08-17T09:16:29.785Z,22.68
2022-08-17T09:19:05.433Z,22.79
2022-08-17T09:21:47.940Z,22.76
2022-08-17T09:24:24.094Z,22.78
2022-08-17T09:26:58.703Z,22.83
2022-08-17T09:29:29.448Z,22.91
2022-08-17T09:31:59.682Z,22.98
2022-08-17T09:34:35.097Z,23.00
2022-08-17T09:37:16.830Z,23.06
2022-08-17T09:39:52.502Z,23.14
2022-08-17T09:42:26.716Z,23.21
2022-08-17T09:45:04.745Z,23.28
2022-08-17T09:47:40.600Z,23.35
2022-08-17T09:50:14.684Z,23.46
2022-08-17T09:52:44.178Z,23.54
2022-08-17T09:55:13.327Z,23.61
2022-08-17T09:58:07.398Z,23.67
2022-08-17T10:00:38.228Z,23.74
2022-08-17T10:03:28.289Z,23.70
2022-08-17T10:06:06.500Z,23.65
2022-08-17T10:08:43.180Z,23.60
2022-08-17T10:11:50.447Z,23.57
2022-08-17T10:14:36.899Z,23.58
2022-08-17T10:17:13.489Z,23.58
2022-08-17T10:19:51.858Z,23.58
2022-08-17T10:22:45.663Z,23.58
2022-08-17T10:25:54.251Z,23.62
2022-08-17T10:28:30.272Z,23.65
2022-08-17T10:31:33.750Z,23.66
2022-08-17T10:34:02.471Z,23.71
2022-08-17T10:36:46.178Z,23.78
2022-08-17T10:39:25.513Z,23.83
2022-08-17T10:41:58.774Z,23.89
2022-08-17T10:44:41.434Z,23.99
2022-08-17T10:47:12.711Z,24.11
2022-08-17T10:49:47.443Z,24.21
2022-08-17T10:52:49.985Z,24.32
2022-08-17T10:55:20.469Z,24.45
2022-08-17T10:57:50.674Z,24.58
2022-08-17T11:01:03.852Z,24.70
2022-08-17T11:03:33.260Z,24.84
2022-08-17T11:06:09.552Z,24.97
2022-08-17T11:09:12.814Z,25.06
2022-08-17T11:11:52.730Z,25.16
2022-08-17T11:14:48.406Z,25.24
2022-08-17T11:17:33.858Z,25.33
2022-08-17T11:20:34.359Z,25.43
2022-08-17T11:23:35.124Z,25.57
2022-08-17T11:26:18.621Z,25.72
2022-08-17T11:28:52.864Z,25.86
2022-08-17T11:31:38.323Z,25.97
2022-08-17T11:34:15.153Z,26.10
2022-08-17T11:37:18.113Z,26.15
2022-08-17T11:40:06.537Z,26.19
2022-08-17T11:42:52.165Z,26.15
2022-08-17T11:45:37.881Z,26.05
2022-08-17T11:48:33.355Z,26.01
2022-08-17T11:51:30.291Z,25.99
2022-08-17T11:57:02.240Z,25.86
2022-08-17T11:59:57.718Z,25.80
2022-08-17T12:02:47.514Z,25.73
2022-08-17T12:05:34.067Z,25.70
2022-08-17T12:08:19.570Z,25.69
2022-08-17T12:11:01.580Z,25.69
2022-08-17T12:13:39.700Z,25.72
2022-08-17T12:16:09.996Z,25.73
2022-08-17T12:18:39.479Z,25.71
2022-08-17T12:21:28.761Z,25.69
2022-08-17T12:24:00.785Z,25.66
2022-08-17T12:26:32.620Z,25.63
2022-08-17T12:29:05.794Z,25.66
2022-08-17T12:31:44.258Z,25.57
2022-08-17T12:34:17.860Z,25.53
2022-08-17T12:36:46.491Z,25.52
2022-08-17T12:39:21.404Z,25.52
2022-08-17T12:41:52.245Z,25.56
2022-08-17T12:44:23.215Z,25.61
2022-08-17T12:46:54.549Z,25.66
2022-08-17T12:49:29.977Z,25.70
2022-08-17T12:52:05.758Z,25.80
2022-08-17T12:54:46.684Z,25.95
2022-08-17T12:57:17.098Z,26.11
2022-08-17T12:59:51.529Z,26.30
2022-08-17T13:02:28.333Z,26.52
2022-08-17T13:04:57.859Z,26.77
2022-08-17T13:07:36.191Z,27.05
2022-08-17T13:10:05.431Z,27.24
2022-08-17T13:12:35.811Z,27.35
2022-08-17T13:15:05.774Z,27.41
2022-08-17T13:17:37.289Z,27.51
2022-08-17T13:20:14.522Z,27.60
2022-08-17T13:22:44.379Z,27.86
2022-08-17T13:25:17.535Z,28.15
2022-08-17T13:27:53.590Z,28.40
2022-08-17T13:30:28.159Z,28.67
2022-08-17T13:32:57.968Z,28.90
2022-08-17T13:35:40.978Z,29.09
2022-08-17T13:38:10.822Z,29.19
2022-08-17T13:40:50.368Z,29.30
2022-08-17T13:43:45.629Z,29.35
2022-08-17T13:46:20.337Z,29.39
2022-08-17T13:48:58.889Z,29.52
2022-08-17T13:51:33.696Z,29.61
2022-08-17T13:54:20.081Z,29.72
2022-08-17T13:56:55.433Z,29.79
2022-08-17T13:59:36.435Z,29.86
2022-08-17T14:02:22.855Z,29.90
2022-08-17T14:04:55.352Z,29.88
2022-08-17T14:07:33.831Z,30.09
2022-08-17T14:10:04.143Z,30.07
2022-08-17T14:12:34.119Z,30.10
2022-08-17T14:15:02.341Z,30.11
2022-08-17T14:17:37.951Z,30.23
2022-08-17T14:20:09.371Z,30.36
2022-08-17T14:22:39.895Z,30.41
2022-08-17T14:25:10.619Z,30.51
2022-08-17T14:27:51.980Z,30.51
2022-08-17T14:30:23.341Z,30.50
2022-08-17T14:32:53.087Z,30.56
2022-08-17T14:35:23.282Z,30.49
2022-08-17T14:37:51.780Z,30.43
2022-08-17T14:40:24.558Z,30.44
2022-08-17T14:42:54.271Z,30.38
2022-08-17T14:45:32.415Z,30.34
2022-08-17T14:48:05.682Z,30.32
2022-08-17T14:50:35.739Z,30.27
2022-08-17T14:53:05.476Z,30.23
2022-08-17T14:55:33.803Z,30.23
2022-08-17T14:58:02.004Z,30.24
2022-08-17T15:00:29.910Z,30.21
2022-08-17T15:03:00.238Z,30.24
2022-08-17T15:05:31.980Z,30.30
2022-08-17T15:08:00.866Z,30.31
2022-08-17T15:10:29.876Z,30.34
2022-08-17T15:12:58.235Z,30.31
2022-08-17T15:15:26.330Z,30.27
2022-08-17T15:17:54.206Z,30.29
2022-08-17T15:20:24.780Z,30.34
2022-08-17T15:22:55.044Z,30.37
2022-08-17T15:25:23.683Z,30.40
2022-08-17T15:27:51.983Z,30.38
2022-08-17T15:30:20.676Z,30.37
2022-08-17T15:32:54.719Z,30.31
2022-08-17T15:35:27.395Z,30.25
2022-08-17T15:38:04.527Z,30.17
2022-08-17T15:40:34.972Z,30.10
2022-08-17T15:43:06.629Z,29.98
2022-08-17T15:45:35.321Z,29.95
2022-08-17T15:48:03.472Z,29.92
2022-08-17T15:50:31.383Z,29.88
2022-08-17T15:53:01.941Z,29.84
2022-08-17T15:55:31.671Z,29.75
2022-08-17T15:57:59.606Z,29.71
2022-08-17T16:00:28.521Z,29.69
2022-08-17T16:03:15.178Z,29.57
2022-08-17T16:05:45.342Z,29.49
2022-08-17T16:08:20.630Z,29.37
2022-08-17T16:10:49.553Z,29.25
2022-08-17T16:13:18.248Z,29.18
2022-08-17T16:15:53.076Z,29.10
2022-08-17T16:18:28.310Z,29.03
2022-08-17T16:20:56.332Z,28.99
2022-08-17T16:23:25.559Z,29.03
2022-08-17T16:25:54.408Z,28.93
2022-08-17T16:28:23.256Z,28.87
2022-08-17T16:31:04.028Z,28.83
2022-08-17T16:33:32.507Z,28.76
2022-08-17T16:36:01.057Z,28.71
2022-08-17T16:38:30.281Z,28.65
2022-08-17T16:40:58.110Z,28.60
2022-08-17T16:43:25.927Z,28.55
2022-08-17T16:45:53.786Z,28.54
2022-08-17T16:48:21.574Z,28.49
2022-08-17T16:51:03.101Z,28.46
2022-08-17T16:53:33.570Z,28.42
2022-08-17T16:56:01.370Z,28.43
2022-08-17T16:58:30.159Z,28.40
2022-08-17T17:00:59.401Z,28.36
2022-08-17T17:03:30.173Z,28.33
2022-08-17T17:06:08.091Z,28.29
2022-08-17T17:08:44.558Z,28.24
2022-08-17T17:11:16.166Z,28.19
2022-08-17T17:13:48.461Z,28.16
2022-08-17T17:16:21.664Z,28.13
2022-08-17T17:19:03.276Z,28.11
2022-08-17T17:21:42.505Z,28.07
2022-08-17T17:24:17.927Z,28.04
2022-08-17T17:27:07.325Z,27.98
2022-08-17T17:29:47.842Z,27.96
2022-08-17T17:32:21.877Z,27.93
2022-08-17T17:34:55.885Z,27.91
2022-08-17T17:37:33.390Z,27.88
2022-08-17T17:40:07.508Z,27.85
2022-08-17T17:42:35.589Z,27.82
2022-08-17T17:45:11.557Z,27.79
2022-08-17T17:47:39.397Z,27.73
2022-08-17T17:50:08.895Z,27.69
2022-08-17T17:52:47.499Z,27.63
2022-08-17T17:55:40.993Z,27.59
2022-08-17T17:58:23.442Z,27.55
2022-08-17T18:01:01.927Z,27.48
2022-08-17T18:03:53.906Z,27.43
2022-08-17T18:06:30.299Z,27.36
2022-08-17T18:09:08.714Z,27.29
2022-08-17T18:11:58.941Z,27.23
2022-08-17T18:14:47.423Z,27.20
2022-08-17T18:17:15.362Z,27.17
2022-08-17T18:19:43.115Z,27.14
2022-08-17T18:22:14.863Z,27.12
2022-08-17T18:24:45.256Z,27.08
2022-08-17T18:27:25.140Z,27.02
2022-08-17T18:29:55.170Z,26.97
2022-08-17T18:32:33.069Z,26.92
2022-08-17T18:35:28.261Z,26.89
2022-08-17T18:37:58.161Z,26.83
2022-08-17T18:40:34.281Z,26.79
2022-08-17T18:43:28.285Z,26.73
2022-08-17T18:46:28.362Z,26.67
2022-08-17T18:49:00.278Z,26.60
2022-08-17T18:51:40.584Z,26.56
2022-08-17T18:54:18.999Z,26.51
2022-08-17T18:56:52.306Z,26.47
2022-08-17T18:59:38.747Z,26.42
2022-08-17T19:02:34.613Z,26.36
2022-08-17T19:05:13.278Z,26.31
2022-08-17T19:07:43.379Z,26.26
2022-08-17T19:10:25.016Z,26.19
2022-08-17T19:13:00.767Z,26.15
2022-08-17T19:15:35.515Z,26.08
2022-08-17T19:18:09.910Z,26.03
2022-08-17T19:20:46.575Z,25.99
2022-08-17T19:23:21.267Z,25.92
2022-08-17T19:25:52.678Z,25.81
2022-08-17T19:28:25.785Z,25.73
2022-08-17T19:30:59.369Z,25.69
2022-08-17T19:33:27.907Z,25.63
2022-08-17T19:36:06.502Z,25.59
2022-08-17T19:38:43.346Z,25.56
2022-08-17T19:41:20.678Z,25.51
2022-08-17T19:44:08.729Z,25.45
2022-08-17T19:46:49.811Z,25.35
2022-08-17T19:49:34.513Z,25.32
2022-08-17T19:52:24.100Z,25.30
2022-08-17T19:54:56.397Z,25.22
2022-08-17T19:57:42.400Z,25.17
2022-08-17T20:00:13.458Z,25.14
2022-08-17T20:02:51.126Z,25.07
2022-08-17T20:05:23.171Z,25.03
2022-08-17T20:07:59.261Z,24.98
2022-08-17T20:10:39.311Z,24.92
2022-08-17T20:13:10.963Z,24.85
2022-08-17T20:15:42.264Z,24.77
2022-08-17T20:18:19.354Z,24.71
2022-08-17T20:20:54.729Z,24.65
2022-08-17T20:23:32.346Z,24.60
2022-08-17T20:26:10.489Z,24.54
2022-08-17T20:28:39.978Z,24.52
2022-08-17T20:31:37.453Z,24.47
2022-08-17T20:37:04.735Z,24.35
2022-08-17T20:39:40.009Z,24.29
2022-08-17T20:42:30.502Z,24.25
2022-08-17T20:45:02.211Z,24.18
2022-08-17T20:47:33.478Z,24.12
2022-08-17T20:50:05.813Z,24.06
2022-08-17T20:52:49.483Z,24.01
2022-08-17T20:55:53.462Z,23.95
2022-08-17T20:58:49.689Z,23.91
2022-08-17T21:01:34.969Z,23.88
2022-08-17T21:04:08.140Z,23.88
2022-08-17T21:06:56.020Z,23.86
2022-08-17T21:09:30.896Z,23.83
2022-08-17T21:12:04.515Z,23.81
2022-08-17T21:14:59.625Z,23.76
2022-08-17T21:17:51.383Z,23.70
2022-08-17T21:20:32.483Z,23.67
2022-08-17T21:23:27.498Z,23.66
2022-08-17T21:26:30.615Z,23.67
2022-08-17T21:29:30.322Z,23.70
2022-08-17T21:32:24.170Z,23.72
2022-08-17T21:35:28.857Z,23.73
2022-08-17T21:38:05.475Z,23.67
2022-08-17T21:40:35.024Z,23.66
2022-08-17T21:43:18.346Z,23.63
2022-08-17T21:45:56.209Z,23.64
2022-08-17T21:48:27.145Z,23.60
2022-08-17T21:51:02.870Z,23.59
2022-08-17T21:53:38.813Z,23.60
2022-08-17T21:56:08.038Z,23.59
2022-08-17T21:58:41.044Z,23.59
2022-08-17T22:01:24.778Z,23.54
2022-08-17T22:04:03.213Z,23.52
2022-08-17T22:06:35.931Z,23.53
2022-08-17T22:09:11.470Z,23.52
2022-08-17T22:11:52.539Z,23.49
2022-08-17T22:14:23.567Z,23.43
2022-08-17T22:17:10.694Z,23.41
2022-08-17T22:19:40.623Z,23.38
2022-08-17T22:22:11.991Z,23.36
2022-08-17T22:24:38.822Z,23.34
2022-08-17T22:27:13.012Z,23.30
2022-08-17T22:29:57.653Z,23.33
2022-08-17T22:32:37.551Z,23.34
2022-08-17T22:35:29.768Z,23.31
2022-08-17T22:37:58.916Z,23.31
2022-08-17T22:40:30.493Z,23.31
2022-08-17T22:43:00.107Z,23.22
2022-08-17T22:45:31.203Z,23.21
2022-08-17T22:48:02.037Z,23.21
2022-08-17T22:50:33.148Z,23.24
2022-08-17T22:53:21.332Z,23.24
2022-08-17T22:56:09.195Z,23.20
2022-08-17T22:59:01.848Z,23.22
2022-08-17T23:01:34.777Z,23.23
2022-08-17T23:04:05.784Z,23.24
2022-08-17T23:06:35.627Z,23.27
2022-08-17T23:09:05.760Z,23.26
2022-08-17T23:11:49.837Z,23.25
2022-08-17T23:14:20.206Z,23.22
2022-08-17T23:16:50.937Z,23.20
2022-08-17T23:19:21.084Z,23.20
2022-08-17T23:21:53.756Z,23.20
2022-08-17T23:24:26.429Z,23.20
2022-08-17T23:26:57.094Z,23.21
2022-08-17T23:29:25.040Z,23.20
2022-08-17T23:31:55.112Z,23.17
2022-08-17T23:34:24.206Z,23.20
2022-08-17T23:36:53.119Z,23.22
2022-08-17T23:39:27.359Z,23.25
2022-08-17T23:41:58.676Z,23.25
2022-08-17T23:44:27.368Z,23.23
2022-08-17T23:46:56.680Z,23.24
2022-08-17T23:49:25.113Z,23.26
2022-08-17T23:51:53.623Z,23.26
2022-08-17T23:54:25.028Z,23.31
2022-08-17T23:56:52.880Z,23.37
2022-08-17T23:59:23.487Z,23.37
